Time;durP1;ratioP1;P1;durP2;ratioP2;P2;SDS_P1;SDS_P2;PMS_P1;PMS_P2;Temp;Humidity;BMP_temperature;BMP_pressure;BME280_temperature;BME280_humidity;BME280_pressure;Samples;Min_cycle;Max_cycle;Signal;HPM_P1;HPM_P2
2022/07/20 11:52:44;;;;;;;4.32;2.08;;;;;;;;;;5115667;27;20477;-79
2022/07/20 11:55:10;;;;;;;3.08;2.20;;;;;;;;;;5114802;28;20464;-78
2022/07/20 11:57:37;;;;;;;6.22;2.08;;;;;;;;;;5114810;28;20410;-79
2022/07/20 12:00:04;;;;;;;3.67;1.70;;;;;;;;;;5114760;28;20016;-79
2022/07/20 12:02:30;;;;;;;3.60;1.70;;;;;;;;;;5113857;28;20425;-79
2022/07/20 12:04:56;;;;;;;4.80;2.25;;;;;;;;;;5114913;28;20324;-79
2022/07/20 12:10:21;;;;;;;2.67;1.70;;;;;;;;;;5114770;28;20039;-78
2022/07/20 12:13:00;;;;;;;4.63;1.60;;;;;;;;;;5114556;28;20512;-79
2022/07/20 12:15:26;;;;;;;3.63;1.95;;;;;;;;;;5114471;28;20421;-79
2022/07/20 12:17:53;;;;;;;6.63;2.55;;;;;;;;;;5114658;28;20016;-79
2022/07/20 12:20:19;;;;;;;8.13;2.67;;;;;;;;;;5114519;28;20057;-79
2022/07/20 12:22:52;;;;;;;4.75;2.17;;;;;;;;;;5114592;28;20078;-79
2022/07/20 12:25:20;;;;;;;3.65;1.83;;;;;;;;;;5114617;28;20028;-79
2022/07/20 12:27:46;;;;;;;3.10;1.63;;;;;;;;;;5114300;28;20044;-79
2022/07/20 12:30:23;;;;;;;3.50;2.00;;;;;;;;;;5114141;28;20027;-79
2022/07/20 12:33:02;;;;;;;2.90;1.70;;;;;;;;;;5114096;28;20016;-79
2022/07/20 12:35:28;;;;;;;6.40;1.90;;;;;;;;;;5114294;28;20477;-79
2022/07/20 12:37:58;;;;;;;4.20;1.35;;;;;;;;;;5114258;28;20020;-79
2022/07/20 12:40:30;;;;;;;2.73;1.70;;;;;;;;;;5114087;28;20406;-79
2022/07/20 12:42:56;;;;;;;2.83;1.60;;;;;;;;;;5114289;28;20024;-79
2022/07/20 12:45:22;;;;;;;2.08;1.67;;;;;;;;;;5113973;28;20363;-78
2022/07/20 12:47:48;;;;;;;2.03;1.45;;;;;;;;;;5114028;28;20020;-79
2022/07/20 12:50:14;;;;;;;1.67;1.50;;;;;;;;;;5113882;28;20043;-79
2022/07/20 12:52:41;;;;;;;4.10;1.73;;;;;;;;;;5113753;28;20047;-79
2022/07/20 12:55:07;;;;;;;3.92;1.70;;;;;;;;;;5113892;28;20023;-78
2022/07/20 12:57:33;;;;;;;4.13;2.05;;;;;;;;;;5113934;28;20024;-78
2022/07/20 13:00:00;;;;;;;5.07;1.90;;;;;;;;;;5113816;28;20016;-78
2022/07/20 13:02:26;;;;;;;4.65;2.58;;;;;;;;;;5107964;28;20036;-78
2022/07/20 13:04:52;;;;;;;4.35;2.33;;;;;;;;;;5100043;28;20047;-79
2022/07/20 13:07:18;;;;;;;4.28;2.15;;;;;;;;;;5099704;28;20021;-78
2022/07/20 13:09:44;;;;;;;3.90;2.28;;;;;;;;;;5099679;28;20157;-79
2022/07/20 13:12:10;;;;;;;2.95;2.10;;;;;;;;;;5099843;28;20424;-79
2022/07/20 13:14:36;;;;;;;6.30;2.10;;;;;;;;;;5100073;28;20028;-79
2022/07/20 13:17:02;;;;;;;4.82;2.00;;;;;;;;;;5099839;28;20078;-78
2022/07/20 13:19:28;;;;;;;4.28;1.70;;;;;;;;;;5099932;28;20099;-79
2022/07/20 13:21:56;;;;;;;9.25;2.80;;;;;;;;;;5098388;28;20032;-79
2022/07/20 13:24:22;;;;;;;4.60;2.00;;;;;;;;;;5099841;28;20036;-79
2022/07/20 13:26:48;;;;;;;3.63;2.40;;;;;;;;;;5099978;28;20048;-79
2022/07/20 13:29:15;;;;;;;4.03;2.00;;;;;;;;;;5099549;28;20024;-79
2022/07/20 13:31:41;;;;;;;4.93;2.25;;;;;;;;;;5099487;28;20067;-79
2022/07/20 13:34:07;;;;;;;3.75;2.00;;;;;;;;;;5099664;28;20021;-79
2022/07/20 13:36:33;;;;;;;2.30;2.05;;;;;;;;;;5099463;28;20020;-78
2022/07/20 13:39:00;;;;;;;4.10;2.40;;;;;;;;;;5096137;28;20031;-79
2022/07/20 13:41:26;;;;;;;7.18;2.10;;;;;;;;;;5099540;28;20024;-79
2022/07/20 13:43:52;;;;;;;4.90;2.20;;;;;;;;;;5099532;28;20032;-79
2022/07/20 13:46:19;;;;;;;5.13;2.22;;;;;;;;;;5099359;28;20031;-79
2022/07/20 13:48:45;;;;;;;6.05;2.65;;;;;;;;;;5099471;28;20024;-79
2022/07/20 13:51:11;;;;;;;8.25;2.28;;;;;;;;;;5098754;28;20141;-79
2022/07/20 13:53:37;;;;;;;4.85;2.08;;;;;;;;;;5099099;28;20052;-79
2022/07/20 13:56:07;;;;;;;7.85;2.70;;;;;;;;;;5099149;28;20394;-78
2022/07/20 13:58:34;;;;;;;7.15;2.40;;;;;;;;;;5099273;28;20024;-79
2022/07/20 14:01:00;;;;;;;4.38;2.33;;;;;;;;;;5098868;28;20463;-79
2022/07/20 14:03:26;;;;;;;3.65;2.58;;;;;;;;;;5098964;28;20028;-79
2022/07/20 14:05:53;;;;;;;3.97;2.42;;;;;;;;;;5098891;28;20028;-79
2022/07/20 14:08:19;;;;;;;4.80;3.08;;;;;;;;;;5098787;28;20024;-79
2022/07/20 14:10:45;;;;;;;7.07;2.47;;;;;;;;;;5098686;28;20020;-78
2022/07/20 14:13:12;;;;;;;3.45;2.40;;;;;;;;;;5097158;28;20059;-79
2022/07/20 14:15:38;;;;;;;5.63;2.50;;;;;;;;;;5097724;28;20019;-79
2022/07/20 14:18:04;;;;;;;4.00;2.50;;;;;;;;;;5098756;28;20044;-79
2022/07/20 14:20:30;;;;;;;7.00;2.50;;;;;;;;;;5098484;28;20369;-79
2022/07/20 14:22:56;;;;;;;3.83;3.10;;;;;;;;;;5098552;28;20020;-79
2022/07/20 14:25:23;;;;;;;4.88;2.30;;;;;;;;;;5097427;28;20044;-79
2022/07/20 14:27:49;;;;;;;4.18;2.28;;;;;;;;;;5098463;28;20016;-79
2022/07/20 14:30:15;;;;;;;5.97;2.67;;;;;;;;;;5098434;28;20398;-79
2022/07/20 14:32:41;;;;;;;4.82;2.50;;;;;;;;;;5098219;28;20032;-79
2022/07/20 14:35:07;;;;;;;5.85;2.75;;;;;;;;;;5098363;28;20024;-77
2022/07/20 14:37:33;;;;;;;5.00;2.28;;;;;;;;;;5092930;28;20031;-79
2022/07/20 14:40:00;;;;;;;4.53;2.75;;;;;;;;;;5082285;28;20483;-81
2022/07/20 14:42:27;;;;;;;5.10;2.75;;;;;;;;;;5085630;28;20116;-79
2022/07/20 14:44:54;;;;;;;6.60;2.80;;;;;;;;;;5092900;28;20031;-79
2022/07/20 14:47:20;;;;;;;3.10;2.47;;;;;;;;;;5081119;28;20361;-80
2022/07/20 14:49:46;;;;;;;4.55;2.83;;;;;;;;;;5077819;28;20024;-80
2022/07/20 14:52:12;;;;;;;3.40;2.63;;;;;;;;;;5077496;28;20052;-80
2022/07/20 14:54:38;;;;;;;4.70;2.40;;;;;;;;;;5077609;28;20326;-80
2022/07/20 14:57:04;;;;;;;4.53;2.40;;;;;;;;;;5077621;28;20099;-80
2022/07/20 14:59:30;;;;;;;3.40;2.60;;;;;;;;;;5077797;28;20027;-80
2022/07/20 15:01:56;;;;;;;3.50;2.63;;;;;;;;;;5077593;28;20077;-80
2022/07/20 15:04:22;;;;;;;5.35;2.55;;;;;;;;;;5077550;28;20119;-80
2022/07/20 15:06:48;;;;;;;6.03;2.90;;;;;;;;;;5077422;28;20023;-80
2022/07/20 15:09:15;;;;;;;4.20;2.70;;;;;;;;;;5076423;28;20036;-80
2022/07/20 15:11:41;;;;;;;3.58;2.65;;;;;;;;;;5076283;28;20325;-80
2022/07/20 15:14:07;;;;;;;2.35;2.10;;;;;;;;;;5077452;28;20142;-80
2022/07/20 15:16:33;;;;;;;4.53;2.60;;;;;;;;;;5077280;28;20381;-80
2022/07/20 15:18:59;;;;;;;3.50;2.42;;;;;;;;;;5077126;28;20025;-81
2022/07/20 15:21:26;;;;;;;3.95;2.67;;;;;;;;;;5077579;28;20127;-81
2022/07/20 15:23:52;;;;;;;4.82;2.65;;;;;;;;;;5077135;28;20029;-80
2022/07/20 15:26:18;;;;;;;3.67;2.53;;;;;;;;;;5076702;28;20399;-80
2022/07/20 15:28:44;;;;;;;3.53;2.70;;;;;;;;;;5077460;28;20047;-80
2022/07/20 15:31:12;;;;;;;3.42;2.78;;;;;;;;;;5077158;28;20103;-81
2022/07/20 15:33:40;;;;;;;5.97;2.25;;;;;;;;;;5077392;28;20027;-81
2022/07/20 15:36:06;;;;;;;6.03;2.50;;;;;;;;;;5077160;28;20387;-81
2022/07/20 15:38:33;;;;;;;5.93;2.67;;;;;;;;;;5076797;28;20028;-81
2022/07/20 15:40:59;;;;;;;3.72;2.55;;;;;;;;;;5077283;28;20025;-81
2022/07/20 15:43:26;;;;;;;6.63;2.58;;;;;;;;;;5076877;28;20016;-81
2022/07/20 15:45:52;;;;;;;6.60;2.67;;;;;;;;;;5076984;28;20044;-81
2022/07/20 15:48:18;;;;;;;7.70;2.40;;;;;;;;;;5077096;28;20024;-81
2022/07/20 15:50:44;;;;;;;4.75;3.75;;;;;;;;;;5076748;28;20048;-81
2022/07/20 15:53:10;;;;;;;3.83;2.60;;;;;;;;;;5076904;28;20020;-82
2022/07/20 15:55:36;;;;;;;5.28;2.70;;;;;;;;;;5076870;28;20383;-82
2022/07/20 15:58:03;;;;;;;5.22;2.67;;;;;;;;;;5077176;28;20021;-82
2022/07/20 16:00:29;;;;;;;5.47;2.55;;;;;;;;;;5077078;28;20056;-82
2022/07/20 16:02:55;;;;;;;4.75;2.70;;;;;;;;;;5077019;28;20020;-82
2022/07/20 16:05:24;;;;;;;4.50;2.40;;;;;;;;;;5075882;28;20024;-82
2022/07/20 16:07:50;;;;;;;3.88;2.60;;;;;;;;;;5076759;28;20100;-81
2022/07/20 16:10:16;;;;;;;6.43;3.35;;;;;;;;;;5075725;28;20363;-81
2022/07/20 16:12:42;;;;;;;4.38;2.38;;;;;;;;;;5077036;28;20028;-81
2022/07/20 16:15:09;;;;;;;7.13;2.65;;;;;;;;;;5076764;28;20020;-80
2022/07/20 16:17:38;;;;;;;4.32;2.90;;;;;;;;;;5076836;28;20062;-81
2022/07/20 16:20:04;;;;;;;6.68;4.13;;;;;;;;;;5076663;28;20154;-81
2022/07/20 16:22:30;;;;;;;5.38;2.50;;;;;;;;;;5076585;28;20028;-81
2022/07/20 16:24:56;;;;;;;5.13;2.30;;;;;;;;;;5076699;28;20038;-81
2022/07/20 16:27:22;;;;;;;3.55;2.00;;;;;;;;;;5076834;28;20029;-81
2022/07/20 16:29:48;;;;;;;4.20;2.30;;;;;;;;;;5076314;28;20025;-81
2022/07/20 16:32:14;;;;;;;7.10;2.28;;;;;;;;;;5076507;28;20021;-81
2022/07/20 16:34:40;;;;;;;6.55;2.40;;;;;;;;;;5076654;28;20031;-81
2022/07/20 16:37:07;;;;;;;6.78;3.17;;;;;;;;;;5076381;28;20016;-81
2022/07/20 16:39:34;;;;;;;7.53;2.63;;;;;;;;;;5080194;28;20452;-81
2022/07/20 16:42:00;;;;;;;5.10;2.97;;;;;;;;;;5080335;28;20398;-81
2022/07/20 16:44:26;;;;;;;7.18;2.50;;;;;;;;;;5080265;28;20406;-81
2022/07/20 16:46:52;;;;;;;5.13;2.55;;;;;;;;;;5080169;28;20029;-81
2022/07/20 16:49:19;;;;;;;10.98;2.83;;;;;;;;;;5079855;28;20036;-81
2022/07/20 16:51:45;;;;;;;3.85;2.83;;;;;;;;;;5079724;28;20093;-80
2022/07/20 16:54:11;;;;;;;7.15;2.20;;;;;;;;;;5079033;28;20052;-81
2022/07/20 16:56:37;;;;;;;4.05;2.50;;;;;;;;;;5079872;28;20069;-81
2022/07/20 16:59:03;;;;;;;3.05;2.42;;;;;;;;;;5079610;28;20023;-81
2022/07/20 17:01:29;;;;;;;4.30;2.70;;;;;;;;;;5079847;28;20040;-81
2022/07/20 17:03:55;;;;;;;4.47;3.00;;;;;;;;;;5079857;28;20025;-81
2022/07/20 17:06:21;;;;;;;6.13;2.25;;;;;;;;;;5079837;28;20107;-81
2022/07/20 17:08:47;;;;;;;5.53;3.10;;;;;;;;;;5078571;28;20063;-81
2022/07/20 17:11:14;;;;;;;22.95;8.63;;;;;;;;;;5082752;28;20066;-80
2022/07/20 17:13:41;;;;;;;8.77;4.28;;;;;;;;;;5079752;28;20063;-81
2022/07/20 17:16:08;;;;;;;10.18;4.07;;;;;;;;;;5079451;28;20391;-80
2022/07/20 17:18:34;;;;;;;5.63;3.42;;;;;;;;;;5079526;28;20402;-81
2022/07/20 17:21:01;;;;;;;8.25;3.63;;;;;;;;;;5084688;28;20040;-81
2022/07/20 17:23:28;;;;;;;5.70;3.50;;;;;;;;;;5098237;28;20034;-81
2022/07/20 17:25:54;;;;;;;7.85;3.33;;;;;;;;;;5119006;28;20024;-81
2022/07/20 17:28:20;;;;;;;8.73;3.45;;;;;;;;;;5118802;28;20372;-85
2022/07/20 17:30:46;;;;;;;4.70;2.60;;;;;;;;;;5119145;28;20035;-80
2022/07/20 17:33:12;;;;;;;8.73;3.67;;;;;;;;;;5119889;28;20023;-80
2022/07/20 17:35:38;;;;;;;15.90;9.90;;;;;;;;;;5119978;28;20064;-80
2022/07/20 17:38:04;;;;;;;21.58;11.50;;;;;;;;;;5119938;28;20020;-80
2022/07/20 17:40:30;;;;;;;35.15;20.30;;;;;;;;;;5119776;28;20030;-80
2022/07/20 17:42:57;;;;;;;53.55;30.35;;;;;;;;;;5118237;28;20031;-80
2022/07/20 17:45:23;;;;;;;49.45;30.73;;;;;;;;;;5119849;28;20329;-80
2022/07/20 17:47:49;;;;;;;35.00;19.38;;;;;;;;;;5118593;28;20488;-80
2022/07/20 17:50:15;;;;;;;29.00;16.65;;;;;;;;;;5119375;28;20051;-80
2022/07/20 17:52:41;;;;;;;29.65;16.40;;;;;;;;;;5119658;28;20294;-80
2022/07/20 17:55:08;;;;;;;24.90;14.60;;;;;;;;;;5119352;28;20069;-80
2022/07/20 17:57:34;;;;;;;17.10;9.65;;;;;;;;;;5119488;28;20026;-80
2022/07/20 18:00:00;;;;;;;15.00;10.15;;;;;;;;;;5118422;28;20059;-80
2022/07/20 18:02:26;;;;;;;15.05;9.32;;;;;;;;;;5119536;28;20024;-80
2022/07/20 18:04:52;;;;;;;13.60;8.32;;;;;;;;;;5118362;28;20035;-80
2022/07/20 18:07:18;;;;;;;14.35;8.75;;;;;;;;;;5119181;28;20436;-78
2022/07/20 18:09:44;;;;;;;12.70;8.43;;;;;;;;;;5119082;28;20031;-79
2022/07/20 18:12:10;;;;;;;12.32;8.93;;;;;;;;;;5119089;28;20027;-79
2022/07/20 18:14:36;;;;;;;13.23;8.27;;;;;;;;;;5118844;28;20313;-79
2022/07/20 18:17:03;;;;;;;14.15;9.70;;;;;;;;;;5118943;28;20047;-79
2022/07/20 18:19:29;;;;;;;13.68;9.07;;;;;;;;;;5119106;28;20019;-79
2022/07/20 18:21:55;;;;;;;19.00;8.20;;;;;;;;;;5118907;28;20024;-78
2022/07/20 18:24:21;;;;;;;19.88;7.82;;;;;;;;;;5118949;28;20414;-79
2022/07/20 18:26:48;;;;;;;22.67;9.02;;;;;;;;;;5118747;28;20035;-78
2022/07/20 18:29:14;;;;;;;19.25;8.65;;;;;;;;;;5119098;28;20047;-78
2022/07/20 18:31:40;;;;;;;18.70;7.90;;;;;;;;;;5118832;28;20032;-78
2022/07/20 18:34:06;;;;;;;13.88;6.35;;;;;;;;;;5118745;28;20297;-81
2022/07/20 18:36:32;;;;;;;13.55;5.55;;;;;;;;;;5118872;28;20024;-84
2022/07/20 18:38:58;;;;;;;9.50;4.60;;;;;;;;;;5118716;28;20024;-79
2022/07/20 18:41:24;;;;;;;13.10;5.13;;;;;;;;;;5118624;28;20030;-79
2022/07/20 18:43:50;;;;;;;11.18;4.47;;;;;;;;;;5118569;28;20442;-79
2022/07/20 18:46:16;;;;;;;9.30;4.10;;;;;;;;;;5118686;28;20027;-78
2022/07/20 18:48:45;;;;;;;12.15;7.13;;;;;;;;;;5118554;28;20035;-79
2022/07/20 18:51:14;;;;;;;9.32;5.10;;;;;;;;;;5117921;28;20062;-79
2022/07/20 18:53:40;;;;;;;7.70;4.53;;;;;;;;;;5118399;28;20019;-79
2022/07/20 18:56:06;;;;;;;13.73;4.38;;;;;;;;;;5118307;28;20015;-79
2022/07/20 18:58:33;;;;;;;12.18;6.07;;;;;;;;;;5118219;28;20020;-79
2022/07/20 19:00:59;;;;;;;14.63;6.80;;;;;;;;;;5117812;28;20034;-79
2022/07/20 19:03:25;;;;;;;12.80;7.20;;;;;;;;;;5118215;28;20024;-79
2022/07/20 19:05:52;;;;;;;17.95;6.50;;;;;;;;;;5118081;28;20028;-79
2022/07/20 19:08:19;;;;;;;19.25;7.15;;;;;;;;;;5118082;28;20031;-79
2022/07/20 19:10:46;;;;;;;20.88;8.80;;;;;;;;;;5117873;28;20020;-79
2022/07/20 19:13:12;;;;;;;22.77;12.38;;;;;;;;;;5118197;28;20023;-79
2022/07/20 19:15:45;;;;;;;18.00;6.70;;;;;;;;;;5118008;28;20012;-79
2022/07/20 19:18:13;;;;;;;20.30;9.32;;;;;;;;;;5117980;28;20023;-79
2022/07/20 19:20:39;;;;;;;20.67;8.57;;;;;;;;;;5117975;28;20151;-86
2022/07/20 19:23:05;;;;;;;18.40;9.88;;;;;;;;;;5118222;28;20378;-82
2022/07/20 19:25:31;;;;;;;21.38;10.50;;;;;;;;;;5097077;28;20441;-79
2022/07/20 19:27:57;;;;;;;14.40;7.40;;;;;;;;;;5083480;28;20031;-80
2022/07/20 19:30:23;;;;;;;17.08;7.38;;;;;;;;;;5075921;28;20067;-81
2022/07/20 19:32:51;;;;;;;18.33;7.90;;;;;;;;;;5077311;28;20028;-81
2022/07/20 19:35:18;;;;;;;13.80;7.57;;;;;;;;;;5077040;28;20107;-80
2022/07/20 19:37:44;;;;;;;13.30;4.18;;;;;;;;;;5076938;28;20306;-80
2022/07/20 19:40:12;;;;;;;7.95;4.00;;;;;;;;;;5077064;28;20417;-80
2022/07/20 19:42:38;;;;;;;13.48;3.60;;;;;;;;;;5077289;28;20066;-80
2022/07/20 19:45:05;;;;;;;11.05;3.40;;;;;;;;;;5079950;28;20047;-80
2022/07/20 19:47:31;;;;;;;10.43;3.35;;;;;;;;;;5076941;28;20041;-79
2022/07/20 19:49:57;;;;;;;7.10;3.33;;;;;;;;;;5077566;28;20411;-81
2022/07/20 19:52:23;;;;;;;5.03;2.80;;;;;;;;;;5092296;28;20097;-81
2022/07/20 19:54:49;;;;;;;3.33;2.63;;;;;;;;;;5096029;28;20027;-81
2022/07/20 19:57:15;;;;;;;5.57;2.70;;;;;;;;;;5095557;28;20031;-84
2022/07/20 19:59:42;;;;;;;10.55;3.05;;;;;;;;;;5094934;28;20020;-80
2022/07/20 20:02:09;;;;;;;12.20;2.95;;;;;;;;;;5095679;28;20027;-81
2022/07/20 20:04:36;;;;;;;9.15;3.08;;;;;;;;;;5088961;28;20362;-81
2022/07/20 20:07:04;;;;;;;7.15;2.90;;;;;;;;;;5076369;28;20029;-80
2022/07/20 20:09:30;;;;;;;10.07;3.53;;;;;;;;;;5075331;28;20414;-80
2022/07/20 20:11:56;;;;;;;5.65;2.53;;;;;;;;;;5076709;28;20074;-81
2022/07/20 20:14:23;;;;;;;6.97;3.08;;;;;;;;;;5084290;28;20024;-81
2022/07/20 20:16:50;;;;;;;11.75;3.25;;;;;;;;;;5080663;28;20410;-81
2022/07/20 20:19:16;;;;;;;5.45;3.10;;;;;;;;;;5080358;28;20406;-81
2022/07/20 20:21:45;;;;;;;7.55;3.17;;;;;;;;;;5081048;28;20041;-81
2022/07/20 20:24:11;;;;;;;6.45;3.00;;;;;;;;;;5080880;28;20037;-80
2022/07/20 20:26:37;;;;;;;10.10;3.80;;;;;;;;;;5080709;28;20107;-80
2022/07/20 20:29:03;;;;;;;9.77;4.20;;;;;;;;;;5080051;28;20393;-80
2022/07/20 20:31:48;;;;;;;12.20;4.88;;;;;;;;;;5080407;28;20441;-82
2022/07/20 20:34:14;;;;;;;9.43;4.88;;;;;;;;;;5088845;28;20035;-82
2022/07/20 20:36:40;;;;;;;13.10;5.30;;;;;;;;;;5100548;28;20095;-82
2022/07/20 20:39:06;;;;;;;14.10;6.05;;;;;;;;;;5099550;28;20020;-81
2022/07/20 20:41:32;;;;;;;10.77;5.38;;;;;;;;;;5094041;28;20032;-82
2022/07/20 20:43:59;;;;;;;12.10;6.13;;;;;;;;;;5081391;28;20036;-82
2022/07/20 20:46:25;;;;;;;14.88;5.88;;;;;;;;;;5080112;28;20483;-81
2022/07/20 20:48:51;;;;;;;13.45;5.40;;;;;;;;;;5080196;28;20027;-82
2022/07/20 20:51:18;;;;;;;11.35;4.65;;;;;;;;;;5079791;28;20048;-83
2022/07/20 20:53:44;;;;;;;11.80;5.53;;;;;;;;;;5080316;28;20029;-82
2022/07/20 20:56:12;;;;;;;8.77;4.65;;;;;;;;;;5080252;28;20021;-82
2022/07/20 20:58:38;;;;;;;12.88;4.78;;;;;;;;;;5086181;28;20028;-81
2022/07/20 21:01:04;;;;;;;9.63;4.53;;;;;;;;;;5090190;28;20213;-81
2022/07/20 21:03:30;;;;;;;8.95;4.90;;;;;;;;;;5086806;28;20038;-81
2022/07/20 21:05:56;;;;;;;11.38;4.38;;;;;;;;;;5089250;28;20111;-80
2022/07/20 21:08:22;;;;;;;11.70;5.43;;;;;;;;;;5090541;28;20063;-81
2022/07/20 21:10:53;;;;;;;9.13;4.75;;;;;;;;;;5089320;28;20089;-81
2022/07/20 21:13:21;;;;;;;9.52;4.85;;;;;;;;;;5078465;28;20448;-81
2022/07/20 21:15:53;;;;;;;7.78;4.68;;;;;;;;;;5078665;28;20149;-81
2022/07/20 21:18:20;;;;;;;11.82;4.68;;;;;;;;;;5090902;28;20051;-81
2022/07/20 21:20:46;;;;;;;8.43;4.47;;;;;;;;;;5097077;28;20040;-81
2022/07/20 21:23:12;;;;;;;9.90;5.13;;;;;;;;;;5079311;28;20033;-81
2022/07/20 21:25:38;;;;;;;11.77;5.80;;;;;;;;;;5079791;28;20044;-81
2022/07/20 21:28:04;;;;;;;15.38;4.75;;;;;;;;;;5079878;28;20024;-81
2022/07/20 21:30:32;;;;;;;10.38;5.25;;;;;;;;;;5079545;28;20051;-81
2022/07/20 21:32:58;;;;;;;8.60;4.75;;;;;;;;;;5079470;28;20133;-81
2022/07/20 21:35:24;;;;;;;12.05;4.85;;;;;;;;;;5079254;28;20021;-81
2022/07/20 21:37:51;;;;;;;10.07;5.43;;;;;;;;;;5078165;28;20341;-82
2022/07/20 21:40:17;;;;;;;28.88;6.10;;;;;;;;;;5079709;28;20048;-82
2022/07/20 21:42:43;;;;;;;14.13;6.43;;;;;;;;;;5098511;28;20024;-82
2022/07/20 21:45:10;;;;;;;9.63;5.32;;;;;;;;;;5099163;28;20062;-82
2022/07/20 21:47:36;;;;;;;14.60;5.03;;;;;;;;;;5098417;28;20032;-82
2022/07/20 21:50:02;;;;;;;10.77;4.72;;;;;;;;;;5094268;28;20024;-81
2022/07/20 21:52:28;;;;;;;8.00;4.68;;;;;;;;;;5089640;28;20048;-82
2022/07/20 21:54:54;;;;;;;9.40;4.25;;;;;;;;;;5099246;28;20020;-82
2022/07/20 21:57:20;;;;;;;8.52;4.40;;;;;;;;;;5098179;28;20440;-82
2022/07/20 21:59:46;;;;;;;8.82;4.40;;;;;;;;;;5098154;28;20237;-82
2022/07/20 22:02:12;;;;;;;7.15;4.35;;;;;;;;;;5092442;28;20067;-81
2022/07/20 22:04:38;;;;;;;11.02;4.38;;;;;;;;;;5099025;28;20028;-81
2022/07/20 22:07:04;;;;;;;11.43;5.15;;;;;;;;;;5097873;28;20043;-81
2022/07/20 22:09:31;;;;;;;10.02;4.45;;;;;;;;;;5096657;28;20106;-81
2022/07/20 22:11:57;;;;;;;10.00;4.10;;;;;;;;;;5077462;28;20120;-81
2022/07/20 22:14:23;;;;;;;12.05;4.30;;;;;;;;;;5078635;28;20066;-81
2022/07/20 22:16:49;;;;;;;9.57;4.38;;;;;;;;;;5077621;28;20052;-81
2022/07/20 22:19:18;;;;;;;10.25;3.97;;;;;;;;;;5078766;28;20025;-81
2022/07/20 22:21:44;;;;;;;11.18;4.28;;;;;;;;;;5078106;28;20153;-81
2022/07/20 22:24:10;;;;;;;9.63;4.25;;;;;;;;;;5077830;28;20141;-81
2022/07/20 22:26:41;;;;;;;15.32;5.15;;;;;;;;;;5098623;28;20035;-81
2022/07/20 22:29:07;;;;;;;;;;;;;;;;;;5097386;28;20028;-81
2022/07/20 22:31:33;;;;;;;8.05;4.22;;;;;;;;;;5078345;28;19953;-81
2022/07/20 22:34:00;;;;;;;8.95;4.70;;;;;;;;;;5078217;28;20407;-81
2022/07/20 22:36:26;;;;;;;7.70;4.25;;;;;;;;;;5076276;28;20025;-81
2022/07/20 22:38:52;;;;;;;9.90;4.60;;;;;;;;;;5078079;28;20028;-81
2022/07/20 22:41:18;;;;;;;9.02;4.20;;;;;;;;;;5078019;28;20489;-81
2022/07/20 22:43:44;;;;;;;9.15;4.10;;;;;;;;;;5078030;28;20105;-81
2022/07/20 22:46:10;;;;;;;10.45;4.72;;;;;;;;;;5077877;28;20017;-82
2022/07/20 22:48:36;;;;;;;15.23;5.40;;;;;;;;;;5095137;28;20032;-81
2022/07/20 22:51:02;;;;;;;16.02;5.90;;;;;;;;;;5096324;28;20105;-81
2022/07/20 22:53:28;;;;;;;9.32;5.00;;;;;;;;;;5095648;28;20402;-81
2022/07/20 22:55:54;;;;;;;9.57;5.55;;;;;;;;;;5098038;28;20020;-82
2022/07/20 22:58:20;;;;;;;9.55;4.88;;;;;;;;;;5097061;28;20421;-81
2022/07/20 23:00:47;;;;;;;12.88;5.60;;;;;;;;;;5098046;28;20060;-81
2022/07/20 23:03:13;;;;;;;13.13;5.05;;;;;;;;;;5089040;28;20016;-81
2022/07/20 23:05:39;;;;;;;7.65;4.80;;;;;;;;;;5093213;28;20032;-81
2022/07/20 23:08:05;;;;;;;12.90;5.32;;;;;;;;;;5097774;28;20062;-81
2022/07/20 23:10:31;;;;;;;10.80;4.60;;;;;;;;;;5096735;28;20080;-81
2022/07/20 23:12:58;;;;;;;7.68;4.85;;;;;;;;;;5096671;28;20024;-81
2022/07/20 23:15:24;;;;;;;9.57;4.60;;;;;;;;;;5097664;28;20024;-81
2022/07/20 23:17:52;;;;;;;13.15;5.00;;;;;;;;;;5097559;28;20016;-81
2022/07/20 23:20:19;;;;;;;9.80;4.72;;;;;;;;;;5086341;28;20016;-81
2022/07/20 23:22:45;;;;;;;12.30;4.25;;;;;;;;;;5077313;28;20028;-81
2022/07/20 23:25:12;;;;;;;8.20;4.40;;;;;;;;;;5086631;28;20032;-81
2022/07/20 23:27:39;;;;;;;9.38;3.90;;;;;;;;;;5097758;28;20048;-81
2022/07/20 23:30:06;;;;;;;8.90;4.80;;;;;;;;;;5097536;28;20115;-81
2022/07/20 23:32:32;;;;;;;7.63;4.15;;;;;;;;;;5096468;28;20042;-81
2022/07/20 23:34:58;;;;;;;13.30;4.90;;;;;;;;;;5096484;28;20024;-81
2022/07/20 23:37:24;;;;;;;7.40;4.30;;;;;;;;;;5094346;28;20118;-81
2022/07/20 23:39:51;;;;;;;12.38;4.43;;;;;;;;;;5097591;28;20362;-81
2022/07/20 23:42:17;;;;;;;13.15;4.55;;;;;;;;;;5097533;28;20025;-81
2022/07/20 23:44:43;;;;;;;10.48;4.93;;;;;;;;;;5087419;28;20074;-81
2022/07/20 23:47:09;;;;;;;15.15;4.75;;;;;;;;;;5076684;28;20107;-81
2022/07/20 23:49:35;;;;;;;15.82;4.88;;;;;;;;;;5077130;28;20096;-81
2022/07/20 23:52:01;;;;;;;12.98;4.57;;;;;;;;;;5076668;28;20051;-81
2022/07/20 23:54:28;;;;;;;9.38;4.78;;;;;;;;;;5078062;28;20070;-80
2022/07/20 23:56:54;;;;;;;11.60;4.60;;;;;;;;;;5094268;28;20051;-81
2022/07/20 23:59:21;;;;;;;10.30;4.68;;;;;;;;;;5077101;28;20051;-81
